createdAt,value
2018-09-09T00:00:52.141Z,13.59
2018-09-09T00:03:20.657Z,13.57
2018-09-09T00:05:49.624Z,13.54
2018-09-09T00:08:18.091Z,13.53
2018-09-09T00:10:46.590Z,13.48
2018-09-09T00:13:15.238Z,13.40
2018-09-09T00:15:43.784Z,13.37
2018-09-09T00:18:13.410Z,13.32
2018-09-09T00:20:41.846Z,13.27
2018-09-09T00:23:10.299Z,13.24
2018-09-09T00:25:38.860Z,13.22
2018-09-09T00:28:07.287Z,13.17
2018-09-09T00:30:36.033Z,13.12
2018-09-09T00:33:04.506Z,13.14
2018-09-09T00:35:33.014Z,13.20
2018-09-09T00:38:01.506Z,13.17
2018-09-09T00:40:29.978Z,13.15
2018-09-09T00:42:58.485Z,13.18
2018-09-09T00:45:26.950Z,13.19
2018-09-09T00:47:55.438Z,13.15
2018-09-09T00:50:29.151Z,13.10
2018-09-09T00:53:03.025Z,13.05
2018-09-09T00:55:31.539Z,12.98
2018-09-09T00:58:00.090Z,12.94
2018-09-09T01:00:33.833Z,13.00
2018-09-09T01:03:02.304Z,13.00
2018-09-09T01:05:30.795Z,12.97
2018-09-09T01:07:59.266Z,12.93
2018-09-09T01:10:27.721Z,12.89
2018-09-09T01:12:56.449Z,12.90
2018-09-09T01:15:24.897Z,12.84
2018-09-09T01:17:53.433Z,12.83
2018-09-09T01:20:22.058Z,12.83
2018-09-09T01:22:51.101Z,12.82
2018-09-09T01:25:19.542Z,12.81
2018-09-09T01:27:48.041Z,12.75
2018-09-09T01:30:16.517Z,12.78
2018-09-09T01:32:45.047Z,12.72
2018-09-09T01:35:13.879Z,12.68
2018-09-09T01:37:42.630Z,12.66
2018-09-09T01:40:11.125Z,12.63
2018-09-09T01:42:39.694Z,12.63
2018-09-09T01:45:08.145Z,12.66
2018-09-09T01:47:36.625Z,12.68
2018-09-09T01:50:05.230Z,12.64
2018-09-09T01:52:33.688Z,12.59
2018-09-09T01:55:02.227Z,12.55
2018-09-09T01:57:30.756Z,12.52
2018-09-09T01:59:59.201Z,12.53
2018-09-09T02:02:27.708Z,12.49
2018-09-09T02:04:56.220Z,12.50
2018-09-09T02:07:24.693Z,12.45
2018-09-09T02:09:53.129Z,12.41
2018-09-09T02:12:21.669Z,12.50
2018-09-09T02:14:50.272Z,12.45
2018-09-09T02:17:18.697Z,12.45
2018-09-09T02:19:47.189Z,12.40
2018-09-09T02:22:15.647Z,12.42
2018-09-09T02:24:44.146Z,12.43
2018-09-09T02:27:12.798Z,12.48
2018-09-09T02:29:41.322Z,12.46
2018-09-09T02:32:09.773Z,12.39
2018-09-09T02:34:38.282Z,12.32
2018-09-09T02:37:06.831Z,12.30
2018-09-09T02:39:35.385Z,12.27
2018-09-09T02:42:03.806Z,12.26
2018-09-09T02:44:32.409Z,12.25
2018-09-09T02:47:00.964Z,12.31
2018-09-09T02:49:29.504Z,12.20
2018-09-09T02:51:57.931Z,12.24
2018-09-09T02:54:26.450Z,12.23
2018-09-09T02:56:54.937Z,12.20
2018-09-09T02:59:23.409Z,12.25
2018-09-09T03:01:52.050Z,12.22
2018-09-09T03:04:20.563Z,12.18
2018-09-09T03:06:49.382Z,12.17
2018-09-09T03:09:17.849Z,12.10
2018-09-09T03:11:46.307Z,12.12
2018-09-09T03:14:14.838Z,12.12
2018-09-09T03:16:43.293Z,12.09
2018-09-09T03:19:11.825Z,12.07
2018-09-09T03:21:40.325Z,12.03
2018-09-09T03:24:08.853Z,12.02
2018-09-09T03:26:37.318Z,12.05
2018-09-09T03:29:05.917Z,12.02
2018-09-09T03:31:34.364Z,11.92
2018-09-09T03:34:02.853Z,11.87
2018-09-09T03:36:31.319Z,11.82
2018-09-09T03:38:59.933Z,11.76
2018-09-09T03:41:28.338Z,11.76
2018-09-09T03:43:56.795Z,11.72
2018-09-09T03:46:25.254Z,11.66
2018-09-09T03:48:53.716Z,11.63
2018-09-09T03:51:22.230Z,11.61
2018-09-09T03:53:51.281Z,11.57
2018-09-09T03:56:19.801Z,11.58
2018-09-09T03:58:48.254Z,11.53
2018-09-09T04:01:16.773Z,11.54
2018-09-09T04:03:45.606Z,11.46
2018-09-09T04:06:14.374Z,11.43
2018-09-09T04:08:42.802Z,11.44
2018-09-09T04:11:12.387Z,11.42
2018-09-09T04:13:43.099Z,11.51
2018-09-09T04:16:12.803Z,11.49
2018-09-09T04:18:42.448Z,11.49
2018-09-09T04:21:10.969Z,11.51
2018-09-09T04:23:39.585Z,11.52
2018-09-09T04:26:08.021Z,11.53
2018-09-09T04:28:36.591Z,11.52
2018-09-09T04:31:05.201Z,11.53
2018-09-09T04:33:33.658Z,11.59
2018-09-09T04:36:02.161Z,11.59
2018-09-09T04:38:30.673Z,11.55
2018-09-09T04:40:59.121Z,11.52
2018-09-09T04:43:27.588Z,11.46
2018-09-09T04:45:56.111Z,11.43
2018-09-09T04:48:24.618Z,11.37
2018-09-09T04:50:53.085Z,11.27
2018-09-09T04:53:21.515Z,11.20
2018-09-09T04:55:50.474Z,11.17
2018-09-09T04:58:18.911Z,11.21
2018-09-09T05:00:47.372Z,11.29
2018-09-09T05:03:15.890Z,11.36
2018-09-09T05:05:44.353Z,11.36
2018-09-09T05:08:12.899Z,11.39
2018-09-09T05:10:41.430Z,11.40
2018-09-09T05:13:09.956Z,11.41
2018-09-09T05:15:38.438Z,11.40
2018-09-09T05:18:06.885Z,11.40
2018-09-09T05:20:35.325Z,11.50
2018-09-09T05:23:03.837Z,11.50
2018-09-09T05:25:32.322Z,11.52
2018-09-09T05:28:00.801Z,11.52
2018-09-09T05:30:29.250Z,11.59
2018-09-09T05:32:57.770Z,11.62
2018-09-09T05:35:26.229Z,11.65
2018-09-09T05:37:54.717Z,11.68
2018-09-09T05:40:23.169Z,11.74
2018-09-09T05:42:52.147Z,11.78
2018-09-09T05:45:20.562Z,11.84
2018-09-09T05:47:49.140Z,11.90
2018-09-09T05:50:17.742Z,11.93
2018-09-09T05:52:46.242Z,11.96
2018-09-09T05:55:14.683Z,12.01
2018-09-09T05:57:43.214Z,12.10
2018-09-09T06:00:11.823Z,12.22
2018-09-09T06:02:40.226Z,12.34
2018-09-09T06:05:08.814Z,12.43
2018-09-09T06:07:37.298Z,12.52
2018-09-09T06:10:05.986Z,12.57
2018-09-09T06:12:34.470Z,12.68
2018-09-09T06:15:02.970Z,12.73
2018-09-09T06:17:31.453Z,12.86
2018-09-09T06:19:59.937Z,13.02
2018-09-09T06:22:28.582Z,13.12
2018-09-09T06:24:57.522Z,13.20
2018-09-09T06:27:26.034Z,13.30
2018-09-09T06:29:54.473Z,13.37
2018-09-09T06:32:22.932Z,13.47
2018-09-09T06:34:52.081Z,13.54
2018-09-09T06:37:20.539Z,13.66
2018-09-09T06:39:49.086Z,13.77
2018-09-09T06:42:17.771Z,13.87
2018-09-09T06:44:46.195Z,13.98
2018-09-09T06:47:14.645Z,14.11
2018-09-09T06:49:43.170Z,14.21
2018-09-09T06:52:11.594Z,14.31
2018-09-09T06:54:40.118Z,14.36
2018-09-09T06:57:08.565Z,14.49
2018-09-09T06:59:37.065Z,14.57
2018-09-09T07:02:05.541Z,14.70
2018-09-09T07:04:34.017Z,14.77
2018-09-09T07:07:02.523Z,14.88
2018-09-09T07:09:30.933Z,14.99
2018-09-09T07:11:59.371Z,15.10
2018-09-09T07:14:27.906Z,15.17
2018-09-09T07:16:56.363Z,15.25
2018-09-09T07:19:24.822Z,15.36
2018-09-09T07:21:53.289Z,15.44
2018-09-09T07:24:21.747Z,15.56
2018-09-09T07:26:50.526Z,15.71
2018-09-09T07:29:18.918Z,15.81
2018-09-09T07:31:47.413Z,15.98
2018-09-09T07:34:15.925Z,16.11
2018-09-09T07:36:44.447Z,16.20
2018-09-09T07:39:12.910Z,16.40
2018-09-09T07:41:41.359Z,16.46
2018-09-09T07:44:09.825Z,16.55
2018-09-09T07:46:38.321Z,16.69
2018-09-09T07:49:06.969Z,16.82
2018-09-09T07:51:35.417Z,16.90
2018-09-09T07:54:03.931Z,16.96
2018-09-09T07:56:32.557Z,17.07
2018-09-09T07:59:01.174Z,17.24
2018-09-09T08:01:29.613Z,17.38
2018-09-09T08:03:58.083Z,17.48
2018-09-09T08:06:26.650Z,17.61
2018-09-09T08:08:55.050Z,17.71
2018-09-09T08:11:27.730Z,17.89
2018-09-09T08:13:56.127Z,17.96
2018-09-09T08:16:24.637Z,18.02
2018-09-09T08:18:53.149Z,18.17
2018-09-09T08:21:21.582Z,18.37
2018-09-09T08:23:50.563Z,18.55
2018-09-09T08:26:19.061Z,18.64
2018-09-09T08:28:47.512Z,18.78
2018-09-09T08:31:16.037Z,18.95
2018-09-09T08:33:44.541Z,19.07
2018-09-09T08:36:13.410Z,19.14
2018-09-09T08:38:41.838Z,19.28
2018-09-09T08:41:10.391Z,19.44
2018-09-09T08:43:38.877Z,19.55
2018-09-09T08:46:07.381Z,19.78
2018-09-09T08:48:36.078Z,19.93
2018-09-09T08:51:04.686Z,20.08
2018-09-09T08:53:33.201Z,20.30
2018-09-09T08:56:01.626Z,20.50
2018-09-09T08:58:30.123Z,20.75
2018-09-09T09:00:58.656Z,20.83
2018-09-09T09:03:27.085Z,21.00
2018-09-09T09:05:55.570Z,21.12
2018-09-09T09:08:24.053Z,21.19
2018-09-09T09:10:52.646Z,21.40
2018-09-09T09:13:21.124Z,21.54
2018-09-09T09:15:49.629Z,21.62
2018-09-09T09:18:18.073Z,21.82
2018-09-09T09:20:46.536Z,21.99
2018-09-09T09:23:15.085Z,22.21
2018-09-09T09:25:48.899Z,22.30
2018-09-09T09:28:17.433Z,22.38
2018-09-09T09:30:46.124Z,22.46
2018-09-09T09:33:14.685Z,22.74
2018-09-09T09:35:48.187Z,23.10
2018-09-09T09:38:17.542Z,23.57
2018-09-09T09:40:46.006Z,24.51
2018-09-09T09:43:14.509Z,25.33
2018-09-09T09:45:43.325Z,25.99
2018-09-09T09:48:11.854Z,26.44
2018-09-09T09:50:40.303Z,26.93
2018-09-09T09:53:08.834Z,27.36
2018-09-09T09:55:37.589Z,27.95
2018-09-09T09:58:06.189Z,28.39
2018-09-09T10:00:39.827Z,28.99
2018-09-09T10:03:08.271Z,28.82
2018-09-09T10:05:36.907Z,29.39
2018-09-09T10:08:05.817Z,29.79
2018-09-09T10:10:34.414Z,29.45
2018-09-09T10:13:03.007Z,30.02
2018-09-09T10:15:31.469Z,29.99
2018-09-09T10:17:59.949Z,30.59
2018-09-09T10:20:28.495Z,30.47
2018-09-09T10:22:56.909Z,30.58
2018-09-09T10:25:25.425Z,30.95
2018-09-09T10:27:53.897Z,31.53
2018-09-09T10:30:22.452Z,31.50
2018-09-09T10:32:51.734Z,32.35
2018-09-09T10:35:20.253Z,32.47
2018-09-09T10:37:48.697Z,32.88
2018-09-09T10:40:17.145Z,33.27
2018-09-09T10:42:45.575Z,33.24
2018-09-09T10:45:14.209Z,33.09
2018-09-09T10:47:42.662Z,33.87
2018-09-09T10:50:11.406Z,33.34
2018-09-09T10:52:39.801Z,33.51
2018-09-09T10:55:08.333Z,34.01
2018-09-09T10:57:36.794Z,34.22
2018-09-09T11:00:05.869Z,34.74
2018-09-09T11:02:34.347Z,34.13
2018-09-09T11:05:02.867Z,34.45
2018-09-09T11:07:31.297Z,34.94
2018-09-09T11:09:59.706Z,35.44
2018-09-09T11:12:30.079Z,35.44
2018-09-09T11:14:59.838Z,36.48
2018-09-09T11:17:29.131Z,36.22
2018-09-09T11:19:58.130Z,36.56
2018-09-09T11:22:27.205Z,36.10
2018-09-09T11:24:55.732Z,36.91
2018-09-09T11:27:24.530Z,36.14
2018-09-09T11:29:53.115Z,36.66
2018-09-09T11:32:21.589Z,36.95
2018-09-09T11:34:50.277Z,36.59
2018-09-09T11:37:18.731Z,37.15
2018-09-09T11:39:47.753Z,37.22
2018-09-09T11:42:16.281Z,38.01
2018-09-09T11:44:44.834Z,38.52
2018-09-09T11:47:13.263Z,38.74
2018-09-09T11:49:41.769Z,39.49
2018-09-09T11:52:10.189Z,38.99
2018-09-09T11:54:38.716Z,39.22
2018-09-09T11:57:07.334Z,39.24
2018-09-09T11:59:35.918Z,39.41
2018-09-09T12:02:04.406Z,39.91
2018-09-09T12:04:32.846Z,41.01
2018-09-09T12:07:01.340Z,39.51
2018-09-09T12:09:29.834Z,40.41
2018-09-09T12:11:58.373Z,40.83
2018-09-09T12:14:26.867Z,40.54
2018-09-09T12:16:55.402Z,40.47
2018-09-09T12:19:24.315Z,41.35
2018-09-09T12:21:52.985Z,41.07
2018-09-09T12:24:21.684Z,41.02
2018-09-09T12:26:51.214Z,41.69
2018-09-09T12:29:19.869Z,41.95
2018-09-09T12:31:48.314Z,42.78
2018-09-09T12:34:16.801Z,43.04
2018-09-09T12:36:45.377Z,42.94
2018-09-09T12:39:13.942Z,43.75
2018-09-09T12:41:42.433Z,44.09
2018-09-09T12:44:16.174Z,43.49
2018-09-09T12:46:50.202Z,43.15
2018-09-09T12:49:18.578Z,42.65
2018-09-09T12:51:47.005Z,43.50
2018-09-09T12:54:15.513Z,43.63
2018-09-09T12:56:43.997Z,43.78
2018-09-09T12:59:12.528Z,43.88
2018-09-09T13:01:41.073Z,43.80
2018-09-09T13:04:09.633Z,43.64
2018-09-09T13:06:38.149Z,43.85
2018-09-09T13:09:07.985Z,44.07
2018-09-09T13:11:36.423Z,43.92
2018-09-09T13:14:05.057Z,43.21
2018-09-09T13:16:33.458Z,43.99
2018-09-09T13:19:01.954Z,44.21
2018-09-09T13:21:30.425Z,44.28
2018-09-09T13:23:58.890Z,44.47
2018-09-09T13:26:27.379Z,45.10
2018-09-09T13:28:55.865Z,45.66
2018-09-09T13:31:24.333Z,46.73
2018-09-09T13:33:52.941Z,46.39
2018-09-09T13:36:21.418Z,45.97
2018-09-09T13:38:50.625Z,45.47
2018-09-09T13:41:19.357Z,45.68
2018-09-09T13:43:47.849Z,46.65
2018-09-09T13:46:16.377Z,46.84
2018-09-09T13:48:44.897Z,46.96
2018-09-09T13:51:13.700Z,46.63
2018-09-09T13:53:42.127Z,45.88
2018-09-09T13:56:10.586Z,46.88
2018-09-09T13:58:39.087Z,47.16
2018-09-09T14:01:07.559Z,47.61
2018-09-09T14:03:36.106Z,47.62
2018-09-09T14:06:04.530Z,47.78
2018-09-09T14:08:33.026Z,48.50
2018-09-09T14:11:01.478Z,47.80
2018-09-09T14:13:30.053Z,47.71
2018-09-09T14:15:58.586Z,47.29
2018-09-09T14:18:27.205Z,47.06
2018-09-09T14:20:55.665Z,46.36
2018-09-09T14:23:24.441Z,46.88
2018-09-09T14:25:52.993Z,46.76
2018-09-09T14:28:21.514Z,47.89
2018-09-09T14:30:50.488Z,48.38
2018-09-09T14:33:18.975Z,47.94
2018-09-09T14:35:47.467Z,48.40
2018-09-09T14:38:15.970Z,48.94
2018-09-09T14:40:44.414Z,47.43
2018-09-09T14:43:13.050Z,47.72
2018-09-09T14:45:41.527Z,47.45
2018-09-09T14:48:09.979Z,47.93
2018-09-09T14:50:38.426Z,47.76
2018-09-09T14:53:07.044Z,46.47
2018-09-09T14:55:35.489Z,45.72
2018-09-09T14:58:04.037Z,47.13
2018-09-09T15:00:32.502Z,47.50
2018-09-09T15:03:00.917Z,47.90
2018-09-09T15:05:29.465Z,47.48
2018-09-09T15:07:57.921Z,46.95
2018-09-09T15:10:26.386Z,47.18
2018-09-09T15:12:54.870Z,48.00
2018-09-09T15:15:23.339Z,47.09
2018-09-09T15:17:52.303Z,47.68
2018-09-09T15:20:20.740Z,47.17
2018-09-09T15:22:49.765Z,48.67
2018-09-09T15:25:18.302Z,47.34
2018-09-09T15:27:46.835Z,47.98
2018-09-09T15:30:15.634Z,46.20
2018-09-09T15:32:44.106Z,46.50
2018-09-09T15:35:12.678Z,46.90
2018-09-09T15:37:41.273Z,46.35
2018-09-09T15:40:09.805Z,47.95
2018-09-09T15:42:38.289Z,47.56
2018-09-09T15:45:06.845Z,47.43
2018-09-09T15:47:35.341Z,47.51
2018-09-09T15:50:03.897Z,45.70
2018-09-09T15:52:32.302Z,45.95
2018-09-09T15:55:00.849Z,46.64
2018-09-09T15:57:29.298Z,45.73
2018-09-09T15:59:58.642Z,47.00
2018-09-09T16:02:27.157Z,47.36
2018-09-09T16:04:55.570Z,46.52
2018-09-09T16:07:24.118Z,45.91
2018-09-09T16:09:52.794Z,45.91
2018-09-09T16:12:21.334Z,46.03
2018-09-09T16:14:51.583Z,46.01
2018-09-09T16:17:20.122Z,45.58
2018-09-09T16:19:48.636Z,45.50
2018-09-09T16:22:17.038Z,44.60
2018-09-09T16:24:45.730Z,45.62
2018-09-09T16:27:14.469Z,45.68
2018-09-09T16:29:43.102Z,44.46
2018-09-09T16:32:11.646Z,43.16
2018-09-09T16:34:40.057Z,43.54
2018-09-09T16:37:08.657Z,42.89
2018-09-09T16:39:37.203Z,43.71
2018-09-09T16:42:05.668Z,43.62
2018-09-09T16:44:34.110Z,43.53
2018-09-09T16:47:02.799Z,42.70
2018-09-09T16:49:31.305Z,41.37
2018-09-09T16:51:59.821Z,38.73
2018-09-09T16:54:28.254Z,35.16
2018-09-09T16:56:56.751Z,33.05
2018-09-09T16:59:25.435Z,31.65
2018-09-09T17:01:53.922Z,30.80
2018-09-09T17:04:22.799Z,29.99
2018-09-09T17:06:52.506Z,29.36
2018-09-09T17:09:20.982Z,28.78
2018-09-09T17:11:49.530Z,28.38
2018-09-09T17:14:17.947Z,27.90
2018-09-09T17:16:46.454Z,27.49
2018-09-09T17:19:15.048Z,27.23
2018-09-09T17:21:43.557Z,27.02
2018-09-09T17:24:11.971Z,26.73
2018-09-09T17:26:40.473Z,26.43
2018-09-09T17:29:08.932Z,26.17
2018-09-09T17:31:37.430Z,26.01
2018-09-09T17:34:05.971Z,25.84
2018-09-09T17:36:34.509Z,25.56
2018-09-09T17:39:02.969Z,25.32
2018-09-09T17:41:31.462Z,25.23
2018-09-09T17:43:59.966Z,25.01
2018-09-09T17:46:28.489Z,24.81
2018-09-09T17:48:56.975Z,24.60
2018-09-09T17:51:25.505Z,24.47
2018-09-09T17:53:53.965Z,24.20
2018-09-09T17:56:22.446Z,23.89
2018-09-09T17:58:51.129Z,23.67
2018-09-09T18:01:19.782Z,23.50
2018-09-09T18:03:48.442Z,23.26
2018-09-09T18:06:17.125Z,23.10
2018-09-09T18:08:45.835Z,22.90
2018-09-09T18:11:14.318Z,22.68
2018-09-09T18:13:42.946Z,22.58
2018-09-09T18:16:11.443Z,22.46
2018-09-09T18:18:40.073Z,22.38
2018-09-09T18:21:08.869Z,22.24
2018-09-09T18:23:37.576Z,22.14
2018-09-09T18:26:06.992Z,22.06
2018-09-09T18:28:35.447Z,21.91
2018-09-09T18:31:03.957Z,21.80
2018-09-09T18:33:32.777Z,21.71
2018-09-09T18:36:01.267Z,21.64
2018-09-09T18:38:30.006Z,21.52
2018-09-09T18:40:58.526Z,21.37
2018-09-09T18:43:27.142Z,21.31
2018-09-09T18:45:55.625Z,21.25
2018-09-09T18:48:24.326Z,21.14
2018-09-09T18:50:53.455Z,20.99
2018-09-09T18:53:22.130Z,20.83
2018-09-09T18:55:51.639Z,20.75
2018-09-09T18:58:20.229Z,20.72
2018-09-09T19:00:48.671Z,20.69
2018-09-09T19:03:17.370Z,20.63
2018-09-09T19:05:45.857Z,20.50
2018-09-09T19:08:14.562Z,20.40
2018-09-09T19:10:43.184Z,20.35
2018-09-09T19:13:11.614Z,20.34
2018-09-09T19:15:40.298Z,20.36
2018-09-09T19:18:08.793Z,20.34
2018-09-09T19:20:37.518Z,20.20
2018-09-09T19:23:05.950Z,20.09
2018-09-09T19:25:34.557Z,19.95
2018-09-09T19:28:03.029Z,19.79
2018-09-09T19:30:31.549Z,19.66
2018-09-09T19:33:00.034Z,19.50
2018-09-09T19:35:28.484Z,19.35
2018-09-09T19:37:57.326Z,19.23
2018-09-09T19:40:25.833Z,19.16
2018-09-09T19:42:54.454Z,19.11
2018-09-09T19:45:23.030Z,19.02
2018-09-09T19:47:52.110Z,18.95
2018-09-09T19:50:20.592Z,18.86
2018-09-09T19:52:49.159Z,18.78
2018-09-09T19:55:17.796Z,18.70
2018-09-09T19:57:46.450Z,18.67
2018-09-09T20:00:15.205Z,18.65
2018-09-09T20:02:43.855Z,18.67
2018-09-09T20:05:12.390Z,18.65
2018-09-09T20:07:41.336Z,18.58
2018-09-09T20:10:09.899Z,18.49
2018-09-09T20:12:38.330Z,18.44
2018-09-09T20:15:06.877Z,18.46
2018-09-09T20:17:35.301Z,18.44
2018-09-09T20:20:03.986Z,18.38
2018-09-09T20:22:32.455Z,18.29
2018-09-09T20:25:01.058Z,18.21
2018-09-09T20:27:29.534Z,18.12
2018-09-09T20:29:58.026Z,18.08
2018-09-09T20:32:26.594Z,17.97
2018-09-09T20:34:55.126Z,17.84
2018-09-09T20:37:23.555Z,17.72
2018-09-09T20:39:52.313Z,17.59
2018-09-09T20:42:20.726Z,17.52
2018-09-09T20:44:49.358Z,17.50
2018-09-09T20:47:17.791Z,17.54
2018-09-09T20:49:46.306Z,17.50
2018-09-09T20:52:14.792Z,17.39
2018-09-09T20:54:43.286Z,17.27
2018-09-09T20:57:11.726Z,17.17
2018-09-09T20:59:40.181Z,17.07
2018-09-09T21:02:08.878Z,16.99
2018-09-09T21:04:38.098Z,16.98
2018-09-09T21:07:06.731Z,16.95
2018-09-09T21:09:35.209Z,16.90
2018-09-09T21:12:03.649Z,16.87
2018-09-09T21:14:32.122Z,16.81
2018-09-09T21:17:00.609Z,16.76
2018-09-09T21:19:30.510Z,16.75
2018-09-09T21:21:59.453Z,16.73
2018-09-09T21:24:28.059Z,16.68
2018-09-09T21:26:57.646Z,16.67
2018-09-09T21:29:26.079Z,16.61
2018-09-09T21:31:54.561Z,16.66
2018-09-09T21:34:23.838Z,16.64
2018-09-09T21:36:53.278Z,16.53
2018-09-09T21:39:22.666Z,16.47
2018-09-09T21:41:51.406Z,16.46
2018-09-09T21:44:19.840Z,16.32
2018-09-09T21:46:49.006Z,16.25
2018-09-09T21:49:17.686Z,16.22
2018-09-09T21:51:47.113Z,16.19
2018-09-09T21:54:15.610Z,16.17
2018-09-09T21:56:44.485Z,16.11
2018-09-09T21:59:13.002Z,16.09
2018-09-09T22:01:46.885Z,16.04
2018-09-09T22:04:16.358Z,16.02
2018-09-09T22:06:44.878Z,15.94
2018-09-09T22:09:13.382Z,15.88
2018-09-09T22:11:41.836Z,15.87
2018-09-09T22:14:10.313Z,15.84
2018-09-09T22:16:38.849Z,15.78
2018-09-09T22:19:07.553Z,15.77
2018-09-09T22:21:35.969Z,15.74
2018-09-09T22:24:04.429Z,15.63
2018-09-09T22:26:32.965Z,15.58
2018-09-09T22:29:01.373Z,15.54
2018-09-09T22:31:29.753Z,15.46
2018-09-09T22:33:58.228Z,15.40
2018-09-09T22:36:26.813Z,15.35
2018-09-09T22:38:55.234Z,15.32
2018-09-09T22:41:23.705Z,15.30
2018-09-09T22:43:53.117Z,15.31
2018-09-09T22:46:21.683Z,15.34
2018-09-09T22:48:50.448Z,15.30
2018-09-09T22:51:18.859Z,15.25
2018-09-09T22:53:47.358Z,15.21
2018-09-09T22:56:16.171Z,15.18
2018-09-09T22:58:44.641Z,15.20
2018-09-09T23:01:13.657Z,15.17
2018-09-09T23:03:42.105Z,15.18
2018-09-09T23:06:10.571Z,15.18
2018-09-09T23:08:39.149Z,15.16
2018-09-09T23:11:07.682Z,15.14
2018-09-09T23:13:36.150Z,15.08
2018-09-09T23:16:04.625Z,15.01
2018-09-09T23:18:33.127Z,14.96
2018-09-09T23:21:01.631Z,14.91
2018-09-09T23:23:30.070Z,14.84
2018-09-09T23:25:58.521Z,14.80
2018-09-09T23:28:27.078Z,14.80
2018-09-09T23:30:55.505Z,14.79
2018-09-09T23:33:23.977Z,14.79
2018-09-09T23:35:52.785Z,14.78
2018-09-09T23:38:21.309Z,14.70
2018-09-09T23:40:49.806Z,14.71
2018-09-09T23:43:18.282Z,14.86
2018-09-09T23:45:46.700Z,14.84
2018-09-09T23:48:15.221Z,14.75
2018-09-09T23:50:43.678Z,14.64
2018-09-09T23:53:12.109Z,14.62
2018-09-09T23:55:40.518Z,14.57
2018-09-09T23:58:08.973Z,14.56
